sensor_id;sensor_type;location;lat;lon;timestamp;pressure;altitude;pressure_sealevel;temperature;humidity
39491;BME280;25175;50.140;18.990;2023-05-15T00:02:27;97865.94;;;13.26;65.95
39491;BME280;25175;50.140;18.990;2023-05-15T00:05:56;97868.81;;;13.25;66.08
39491;BME280;25175;50.140;18.990;2023-05-15T00:09:12;97863.56;;;13.25;66.48
39491;BME280;25175;50.140;18.990;2023-05-15T00:12:17;97838.31;;;13.12;66.23
39491;BME280;25175;50.140;18.990;2023-05-15T00:15:24;97848.94;;;13.17;66.25
39491;BME280;25175;50.140;18.990;2023-05-15T00:18:29;97842.31;;;13.15;66.44
39491;BME280;25175;50.140;18.990;2023-05-15T00:21:38;97823.31;;;13.13;66.27
39491;BME280;25175;50.140;18.990;2023-05-15T00:24:43;97458.66;;;10.91;66.21
39491;BME280;25175;50.140;18.990;2023-05-15T00:27:50;97811.66;;;13.09;66.73
39491;BME280;25175;50.140;18.990;2023-05-15T00:31:13;97818.50;;;13.10;66.75
39491;BME280;25175;50.140;18.990;2023-05-15T00:34:20;97816.47;;;13.12;66.75
39491;BME280;25175;50.140;18.990;2023-05-15T00:37:30;97781.94;;;12.97;66.52
39491;BME280;25175;50.140;18.990;2023-05-15T00:40:37;97804.16;;;13.17;66.54
39491;BME280;25175;50.140;18.990;2023-05-15T00:43:45;97792.56;;;13.18;66.56
39491;BME280;25175;50.140;18.990;2023-05-15T00:46:56;97789.16;;;13.18;66.30
39491;BME280;25175;50.140;18.990;2023-05-15T00:50:08;97781.25;;;13.18;66.61
39491;BME280;25175;50.140;18.990;2023-05-15T00:53:18;97761.38;;;13.10;66.56
39491;BME280;25175;50.140;18.990;2023-05-15T00:56:24;97764.88;;;13.16;66.59
39491;BME280;25175;50.140;18.990;2023-05-15T01:03:17;97765.38;;;13.13;66.67
39491;BME280;25175;50.140;18.990;2023-05-15T01:06:25;97761.84;;;13.07;66.74
39491;BME280;25175;50.140;18.990;2023-05-15T01:09:36;97761.84;;;13.07;66.96
39491;BME280;25175;50.140;18.990;2023-05-15T01:12:50;97762.66;;;13.08;66.90
39491;BME280;25175;50.140;18.990;2023-05-15T01:15:58;97408.28;;;10.77;66.90
39491;BME280;25175;50.140;18.990;2023-05-15T01:19:04;97774.78;;;13.09;66.76
39491;BME280;25175;50.140;18.990;2023-05-15T01:22:43;97770.09;;;13.11;66.86
39491;BME280;25175;50.140;18.990;2023-05-15T01:29:49;97760.41;;;13.16;66.54
39491;BME280;25175;50.140;18.990;2023-05-15T01:33:07;97749.06;;;13.16;66.62
39491;BME280;25175;50.140;18.990;2023-05-15T01:36:29;97713.09;;;12.88;66.55
39491;BME280;25175;50.140;18.990;2023-05-15T01:39:44;97735.03;;;13.10;66.75
39491;BME280;25175;50.140;18.990;2023-05-15T01:42:55;97732.88;;;13.07;66.74
39491;BME280;25175;50.140;18.990;2023-05-15T01:46:19;97734.53;;;12.97;66.59
39491;BME280;25175;50.140;18.990;2023-05-15T01:49:28;97743.50;;;12.96;66.77
39491;BME280;25175;50.140;18.990;2023-05-15T01:52:41;97736.78;;;12.88;67.14
39491;BME280;25175;50.140;18.990;2023-05-15T01:55:55;97744.84;;;12.82;67.31
39491;BME280;25175;50.140;18.990;2023-05-15T01:59:08;97739.19;;;12.73;67.47
39491;BME280;25175;50.140;18.990;2023-05-15T02:02:18;97747.31;;;12.72;67.76
39491;BME280;25175;50.140;18.990;2023-05-15T02:05:26;97736.72;;;12.67;67.99
39491;BME280;25175;50.140;18.990;2023-05-15T02:08:34;97738.22;;;12.63;68.09
39491;BME280;25175;50.140;18.990;2023-05-15T02:11:42;97727.84;;;12.56;68.40
39491;BME280;25175;50.140;18.990;2023-05-15T02:14:49;97728.88;;;12.55;68.62
39491;BME280;25175;50.140;18.990;2023-05-15T02:18:09;97723.06;;;12.53;68.68
39491;BME280;25175;50.140;18.990;2023-05-15T02:21:15;97724.34;;;12.51;68.78
39491;BME280;25175;50.140;18.990;2023-05-15T02:24:20;97722.72;;;12.50;68.96
39491;BME280;25175;50.140;18.990;2023-05-15T02:27:27;97716.19;;;12.52;68.95
39491;BME280;25175;50.140;18.990;2023-05-15T02:30:45;97712.88;;;12.57;68.90
39491;BME280;25175;50.140;18.990;2023-05-15T02:34:11;97694.38;;;12.52;69.07
39491;BME280;25175;50.140;18.990;2023-05-15T02:37:27;97752.44;;;12.62;68.91
39491;BME280;25175;50.140;18.990;2023-05-15T02:40:37;97721.41;;;12.64;68.76
39491;BME280;25175;50.140;18.990;2023-05-15T02:43:59;97713.97;;;12.61;69.00
39491;BME280;25175;50.140;18.990;2023-05-15T02:47:07;97708.97;;;12.59;68.98
39491;BME280;25175;50.140;18.990;2023-05-15T02:50:17;97717.63;;;12.60;69.17
39491;BME280;25175;50.140;18.990;2023-05-15T02:53:23;97710.56;;;12.60;69.02
39491;BME280;25175;50.140;18.990;2023-05-15T02:56:29;97698.66;;;12.58;69.28
39491;BME280;25175;50.140;18.990;2023-05-15T02:59:37;97695.22;;;12.57;69.25
39491;BME280;25175;50.140;18.990;2023-05-15T03:02:46;97695.50;;;12.56;69.48
39491;BME280;25175;50.140;18.990;2023-05-15T03:06:00;97696.03;;;12.58;69.48
39491;BME280;25175;50.140;18.990;2023-05-15T03:09:06;97691.81;;;12.57;69.55
39491;BME280;25175;50.140;18.990;2023-05-15T03:12:11;97703.13;;;12.57;69.47
39491;BME280;25175;50.140;18.990;2023-05-15T03:15:19;97697.06;;;12.57;69.59
39491;BME280;25175;50.140;18.990;2023-05-15T03:18:25;97692.84;;;12.56;69.69
39491;BME280;25175;50.140;18.990;2023-05-15T03:21:34;97701.75;;;12.55;69.62
39491;BME280;25175;50.140;18.990;2023-05-15T03:24:41;97706.47;;;12.53;69.70
39491;BME280;25175;50.140;18.990;2023-05-15T03:27:47;97700.91;;;12.49;69.61
39491;BME280;25175;50.140;18.990;2023-05-15T03:30:53;97684.31;;;12.49;70.14
39491;BME280;25175;50.140;18.990;2023-05-15T03:33:59;97683.25;;;12.50;70.15
39491;BME280;25175;50.140;18.990;2023-05-15T03:37:09;97676.97;;;12.51;69.95
39491;BME280;25175;50.140;18.990;2023-05-15T03:40:15;97668.03;;;12.52;70.07
39491;BME280;25175;50.140;18.990;2023-05-15T03:43:20;97674.09;;;12.52;70.14
39491;BME280;25175;50.140;18.990;2023-05-15T03:46:27;97659.34;;;12.51;70.00
39491;BME280;25175;50.140;18.990;2023-05-15T03:49:37;97662.78;;;12.52;70.07
39491;BME280;25175;50.140;18.990;2023-05-15T03:53:10;97656.47;;;12.53;70.17
39491;BME280;25175;50.140;18.990;2023-05-15T03:56:17;97596.22;;;12.18;70.12
39491;BME280;25175;50.140;18.990;2023-05-15T03:59:31;97649.94;;;12.55;70.17
39491;BME280;25175;50.140;18.990;2023-05-15T04:02:37;97617.59;;;12.38;70.34
39491;BME280;25175;50.140;18.990;2023-05-15T04:05:43;97643.63;;;12.56;70.37
39491;BME280;25175;50.140;18.990;2023-05-15T04:08:54;97652.09;;;12.58;70.41
39491;BME280;25175;50.140;18.990;2023-05-15T04:11:59;97653.44;;;12.61;70.01
39491;BME280;25175;50.140;18.990;2023-05-15T04:15:23;97656.06;;;12.61;70.06
39491;BME280;25175;50.140;18.990;2023-05-15T04:18:31;97659.75;;;12.60;70.08
39491;BME280;25175;50.140;18.990;2023-05-15T04:21:37;97642.19;;;12.49;70.47
39491;BME280;25175;50.140;18.990;2023-05-15T04:24:45;97663.19;;;12.60;70.17
39491;BME280;25175;50.140;18.990;2023-05-15T04:27:51;97657.69;;;12.62;70.32
39491;BME280;25175;50.140;18.990;2023-05-15T04:30:56;97688.22;;;12.63;70.45
39491;BME280;25175;50.140;18.990;2023-05-15T04:34:03;97647.69;;;12.64;70.19
39491;BME280;25175;50.140;18.990;2023-05-15T04:37:09;97630.72;;;12.55;70.37
39491;BME280;25175;50.140;18.990;2023-05-15T04:40:18;97626.09;;;12.62;70.40
39491;BME280;25175;50.140;18.990;2023-05-15T04:43:23;97627.13;;;12.61;70.44
39491;BME280;25175;50.140;18.990;2023-05-15T04:46:29;97623.19;;;12.63;70.50
39491;BME280;25175;50.140;18.990;2023-05-15T04:49:35;97624.56;;;12.66;70.85
39491;BME280;25175;50.140;18.990;2023-05-15T04:52:42;97626.50;;;12.70;70.70
39491;BME280;25175;50.140;18.990;2023-05-15T04:55:50;97625.19;;;12.73;71.00
39491;BME280;25175;50.140;18.990;2023-05-15T04:58:56;97627.34;;;12.76;70.84
39491;BME280;25175;50.140;18.990;2023-05-15T05:02:02;97623.13;;;12.75;70.52
39491;BME280;25175;50.140;18.990;2023-05-15T05:05:08;97614.19;;;12.76;70.48
39491;BME280;25175;50.140;18.990;2023-05-15T05:08:17;97599.19;;;12.76;70.52
39491;BME280;25175;50.140;18.990;2023-05-15T05:11:26;97595.97;;;12.74;70.58
39491;BME280;25175;50.140;18.990;2023-05-15T05:14:31;97603.47;;;12.82;70.46
39491;BME280;25175;50.140;18.990;2023-05-15T05:17:38;97596.25;;;12.73;70.56
39491;BME280;25175;50.140;18.990;2023-05-15T05:20:43;97580.63;;;12.66;70.52
39491;BME280;25175;50.140;18.990;2023-05-15T05:23:49;97595.28;;;12.79;70.60
39491;BME280;25175;50.140;18.990;2023-05-15T05:26:59;97610.63;;;12.87;70.64
39491;BME280;25175;50.140;18.990;2023-05-15T05:30:06;97610.88;;;12.85;70.52
39491;BME280;25175;50.140;18.990;2023-05-15T05:33:12;97598.53;;;12.86;70.81
39491;BME280;25175;50.140;18.990;2023-05-15T05:36:19;97590.78;;;12.79;70.65
39491;BME280;25175;50.140;18.990;2023-05-15T05:39:24;97601.97;;;12.86;70.65
39491;BME280;25175;50.140;18.990;2023-05-15T05:42:33;97603.78;;;12.86;70.70
39491;BME280;25175;50.140;18.990;2023-05-15T05:45:38;97608.81;;;12.87;70.71
39491;BME280;25175;50.140;18.990;2023-05-15T05:48:45;97594.00;;;12.81;70.58
39491;BME280;25175;50.140;18.990;2023-05-15T05:51:51;97605.22;;;12.93;70.75
39491;BME280;25175;50.140;18.990;2023-05-15T05:54:57;97597.84;;;12.95;70.68
39491;BME280;25175;50.140;18.990;2023-05-15T05:58:05;97593.94;;;12.98;70.62
39491;BME280;25175;50.140;18.990;2023-05-15T06:01:11;97593.50;;;13.01;70.42
39491;BME280;25175;50.140;18.990;2023-05-15T06:04:18;97612.22;;;13.04;70.57
39491;BME280;25175;50.140;18.990;2023-05-15T06:07:26;97597.19;;;13.05;70.30
39491;BME280;25175;50.140;18.990;2023-05-15T06:10:31;97602.22;;;13.06;70.42
39491;BME280;25175;50.140;18.990;2023-05-15T06:13:40;97596.19;;;13.06;70.23
39491;BME280;25175;50.140;18.990;2023-05-15T06:16:46;97590.91;;;13.06;70.35
39491;BME280;25175;50.140;18.990;2023-05-15T06:19:53;97583.56;;;13.08;70.48
39491;BME280;25175;50.140;18.990;2023-05-15T06:22:58;97571.91;;;13.04;70.58
39491;BME280;25175;50.140;18.990;2023-05-15T06:26:04;97587.31;;;13.12;70.49
39491;BME280;25175;50.140;18.990;2023-05-15T06:29:15;97585.44;;;13.12;70.33
39491;BME280;25175;50.140;18.990;2023-05-15T06:32:21;97581.53;;;13.15;70.93
39491;BME280;25175;50.140;18.990;2023-05-15T06:35:26;97585.28;;;13.19;70.79
39491;BME280;25175;50.140;18.990;2023-05-15T06:38:36;97586.38;;;13.23;70.69
39491;BME280;25175;50.140;18.990;2023-05-15T06:41:41;97585.09;;;13.25;70.70
39491;BME280;25175;50.140;18.990;2023-05-15T06:44:50;97570.88;;;13.26;70.60
39491;BME280;25175;50.140;18.990;2023-05-15T06:47:56;97579.06;;;13.30;70.60
39491;BME280;25175;50.140;18.990;2023-05-15T06:51:02;97583.34;;;13.36;70.55
39491;BME280;25175;50.140;18.990;2023-05-15T06:54:09;97586.03;;;13.41;70.77
39491;BME280;25175;50.140;18.990;2023-05-15T06:57:15;97579.25;;;13.45;70.84
39491;BME280;25175;50.140;18.990;2023-05-15T07:00:25;97577.66;;;13.44;70.63
39491;BME280;25175;50.140;18.990;2023-05-15T07:03:32;97581.63;;;13.46;70.56
39491;BME280;25175;50.140;18.990;2023-05-15T07:06:40;97583.53;;;13.51;70.76
39491;BME280;25175;50.140;18.990;2023-05-15T07:09:46;97574.31;;;13.53;70.94
39491;BME280;25175;50.140;18.990;2023-05-15T07:12:52;97567.72;;;13.51;70.67
39491;BME280;25175;50.140;18.990;2023-05-15T07:16:13;97574.38;;;13.58;70.17
39491;BME280;25175;50.140;18.990;2023-05-15T07:19:18;97555.28;;;13.46;70.23
39491;BME280;25175;50.140;18.990;2023-05-15T07:22:27;97569.41;;;13.62;70.46
39491;BME280;25175;50.140;18.990;2023-05-15T07:25:33;97565.22;;;13.66;70.48
39491;BME280;25175;50.140;18.990;2023-05-15T07:28:39;97567.88;;;13.66;70.16
39491;BME280;25175;50.140;18.990;2023-05-15T07:31:47;97565.25;;;13.71;70.53
39491;BME280;25175;50.140;18.990;2023-05-15T07:34:54;97307.63;;;12.09;70.11
39491;BME280;25175;50.140;18.990;2023-05-15T07:37:59;97584.81;;;13.75;69.96
39491;BME280;25175;50.140;18.990;2023-05-15T07:41:05;97566.31;;;13.70;70.52
39491;BME280;25175;50.140;18.990;2023-05-15T07:44:10;97572.78;;;13.84;70.43
39491;BME280;25175;50.140;18.990;2023-05-15T07:47:19;97564.91;;;13.89;70.48
39491;BME280;25175;50.140;18.990;2023-05-15T07:50:25;97569.13;;;13.90;70.10
39491;BME280;25175;50.140;18.990;2023-05-15T07:53:31;97569.69;;;13.92;70.30
39491;BME280;25175;50.140;18.990;2023-05-15T07:56:36;97566.00;;;13.93;70.11
39491;BME280;25175;50.140;18.990;2023-05-15T07:59:46;97577.03;;;13.90;70.00
39491;BME280;25175;50.140;18.990;2023-05-15T08:02:54;97578.09;;;13.89;69.74
39491;BME280;25175;50.140;18.990;2023-05-15T08:06:03;97576.22;;;13.89;70.31
39491;BME280;25175;50.140;18.990;2023-05-15T08:09:12;97588.63;;;13.89;70.05
39491;BME280;25175;50.140;18.990;2023-05-15T08:12:21;97581.78;;;13.88;70.07
39491;BME280;25175;50.140;18.990;2023-05-15T08:15:29;97586.00;;;13.89;70.56
39491;BME280;25175;50.140;18.990;2023-05-15T08:18:46;97584.47;;;13.93;70.46
39491;BME280;25175;50.140;18.990;2023-05-15T08:21:53;97573.88;;;13.88;70.35
39491;BME280;25175;50.140;18.990;2023-05-15T08:24:59;97589.31;;;14.01;70.10
39491;BME280;25175;50.140;18.990;2023-05-15T08:28:07;97582.22;;;14.06;70.14
39491;BME280;25175;50.140;18.990;2023-05-15T08:31:14;97581.19;;;14.07;69.90
39491;BME280;25175;50.140;18.990;2023-05-15T08:34:22;97581.44;;;14.06;69.57
39491;BME280;25175;50.140;18.990;2023-05-15T08:37:29;97583.03;;;14.07;69.66
39491;BME280;25175;50.140;18.990;2023-05-15T08:40:34;97575.16;;;14.12;69.61
39491;BME280;25175;50.140;18.990;2023-05-15T08:43:44;97575.19;;;14.17;70.02
39491;BME280;25175;50.140;18.990;2023-05-15T08:46:54;97580.50;;;14.22;69.99
39491;BME280;25175;50.140;18.990;2023-05-15T08:50:07;97583.69;;;14.24;69.62
39491;BME280;25175;50.140;18.990;2023-05-15T08:53:17;97590.03;;;14.28;69.27
39491;BME280;25175;50.140;18.990;2023-05-15T08:56:23;97576.59;;;14.29;68.98
39491;BME280;25175;50.140;18.990;2023-05-15T08:59:31;97574.94;;;14.23;69.26
39491;BME280;25175;50.140;18.990;2023-05-15T09:02:38;97581.06;;;14.29;68.58
39491;BME280;25175;50.140;18.990;2023-05-15T09:05:47;97591.63;;;14.29;68.43
39491;BME280;25175;50.140;18.990;2023-05-15T09:08:55;97592.94;;;14.26;67.94
39491;BME280;25175;50.140;18.990;2023-05-15T09:12:04;97596.06;;;14.23;68.21
39491;BME280;25175;50.140;18.990;2023-05-15T09:15:17;97593.63;;;14.12;67.80
39491;BME280;25175;50.140;18.990;2023-05-15T09:18:25;97605.50;;;14.14;68.38
39491;BME280;25175;50.140;18.990;2023-05-15T09:21:34;97601.28;;;14.13;68.38
39491;BME280;25175;50.140;18.990;2023-05-15T09:24:40;97601.25;;;14.08;68.27
39491;BME280;25175;50.140;18.990;2023-05-15T09:27:46;97609.34;;;14.02;68.56
39491;BME280;25175;50.140;18.990;2023-05-15T09:30:56;97609.06;;;13.98;68.99
39491;BME280;25175;50.140;18.990;2023-05-15T09:37:34;97608.00;;;13.99;69.17
39491;BME280;25175;50.140;18.990;2023-05-15T09:40:40;97611.94;;;13.97;69.06
39491;BME280;25175;50.140;18.990;2023-05-15T09:43:45;97610.59;;;13.94;69.47
39491;BME280;25175;50.140;18.990;2023-05-15T09:46:55;97624.03;;;13.93;68.64
39491;BME280;25175;50.140;18.990;2023-05-15T09:50:05;97624.28;;;13.91;69.20
39491;BME280;25175;50.140;18.990;2023-05-15T09:53:17;97597.16;;;13.69;69.05
39491;BME280;25175;50.140;18.990;2023-05-15T09:56:24;97617.91;;;13.87;69.04
39491;BME280;25175;50.140;18.990;2023-05-15T09:59:31;97617.09;;;13.87;69.49
39491;BME280;25175;50.140;18.990;2023-05-15T10:02:39;97624.75;;;13.88;69.81
39491;BME280;25175;50.140;18.990;2023-05-15T10:05:46;97629.88;;;13.95;70.74
39491;BME280;25175;50.140;18.990;2023-05-15T10:08:54;97627.81;;;14.02;70.05
39491;BME280;25175;50.140;18.990;2023-05-15T10:12:04;97644.44;;;14.02;69.26
39491;BME280;25175;50.140;18.990;2023-05-15T10:15:12;97640.47;;;14.00;68.55
39491;BME280;25175;50.140;18.990;2023-05-15T10:18:24;97639.41;;;14.01;68.96
39491;BME280;25175;50.140;18.990;2023-05-15T10:21:35;97644.16;;;13.99;69.03
39491;BME280;25175;50.140;18.990;2023-05-15T10:24:46;97641.75;;;13.97;68.99
39491;BME280;25175;50.140;18.990;2023-05-15T10:28:02;97694.22;;;13.94;68.43
39491;BME280;25175;50.140;18.990;2023-05-15T10:31:13;97649.03;;;13.90;68.58
39491;BME280;25175;50.140;18.990;2023-05-15T10:34:19;97649.03;;;13.90;69.23
39491;BME280;25175;50.140;18.990;2023-05-15T10:37:27;97645.94;;;13.93;69.72
39491;BME280;25175;50.140;18.990;2023-05-15T10:40:37;97597.78;;;13.81;70.46
39491;BME280;25175;50.140;18.990;2023-05-15T10:43:48;97645.84;;;14.15;69.91
39491;BME280;25175;50.140;18.990;2023-05-15T10:46:57;97635.09;;;14.21;69.53
39491;BME280;25175;50.140;18.990;2023-05-15T10:50:05;97637.50;;;14.23;68.67
39491;BME280;25175;50.140;18.990;2023-05-15T10:53:32;97619.19;;;14.11;69.02
39491;BME280;25175;50.140;18.990;2023-05-15T10:56:41;97573.13;;;13.92;70.63
39491;BME280;25175;50.140;18.990;2023-05-15T10:59:46;97630.72;;;14.32;69.03
39491;BME280;25175;50.140;18.990;2023-05-15T11:02:53;97632.03;;;14.29;69.14
39491;BME280;25175;50.140;18.990;2023-05-15T11:06:10;97629.38;;;14.29;69.32
39491;BME280;25175;50.140;18.990;2023-05-15T11:09:33;97614.38;;;14.35;69.46
39491;BME280;25175;50.140;18.990;2023-05-15T11:12:57;97609.69;;;14.47;70.12
39491;BME280;25175;50.140;18.990;2023-05-15T11:16:05;97608.47;;;14.59;71.40
39491;BME280;25175;50.140;18.990;2023-05-15T11:19:24;97607.72;;;14.68;69.50
39491;BME280;25175;50.140;18.990;2023-05-15T11:22:36;97608.53;;;14.69;69.31
39491;BME280;25175;50.140;18.990;2023-05-15T11:26:00;97610.63;;;14.67;68.28
39491;BME280;25175;50.140;18.990;2023-05-15T11:29:19;97588.66;;;14.57;67.79
39491;BME280;25175;50.140;18.990;2023-05-15T11:32:31;97582.84;;;14.55;69.46
39491;BME280;25175;50.140;18.990;2023-05-15T11:35:46;97588.19;;;14.69;69.84
39491;BME280;25175;50.140;18.990;2023-05-15T11:38:52;97574.19;;;14.64;68.80
39491;BME280;25175;50.140;18.990;2023-05-15T11:42:10;97589.28;;;14.73;67.85
39491;BME280;25175;50.140;18.990;2023-05-15T11:45:21;97587.69;;;14.73;67.21
39491;BME280;25175;50.140;18.990;2023-05-15T11:48:31;97596.69;;;14.72;67.51
39491;BME280;25175;50.140;18.990;2023-05-15T11:55:39;97597.44;;;14.72;67.33
39491;BME280;25175;50.140;18.990;2023-05-15T11:58:51;97594.56;;;14.73;68.17
39491;BME280;25175;50.140;18.990;2023-05-15T12:02:05;97579.25;;;14.71;67.79
39491;BME280;25175;50.140;18.990;2023-05-15T12:05:10;97581.13;;;14.75;68.20
39491;BME280;25175;50.140;18.990;2023-05-15T12:08:17;97609.63;;;14.78;68.33
39491;BME280;25175;50.140;18.990;2023-05-15T12:11:24;97588.25;;;14.79;68.44
39491;BME280;25175;50.140;18.990;2023-05-15T12:14:33;97590.97;;;14.85;68.58
39491;BME280;25175;50.140;18.990;2023-05-15T12:17:43;97590.97;;;14.85;68.16
39491;BME280;25175;50.140;18.990;2023-05-15T12:20:52;97591.22;;;14.88;68.44
39491;BME280;25175;50.140;18.990;2023-05-15T12:24:00;97584.66;;;14.91;68.01
39491;BME280;25175;50.140;18.990;2023-05-15T12:27:08;97568.28;;;14.94;67.29
39491;BME280;25175;50.140;18.990;2023-05-15T12:30:18;97360.66;;;13.70;67.92
39491;BME280;25175;50.140;18.990;2023-05-15T12:33:28;97581.25;;;15.00;66.39
39491;BME280;25175;50.140;18.990;2023-05-15T12:36:33;97565.41;;;15.05;67.36
39491;BME280;25175;50.140;18.990;2023-05-15T12:39:49;97566.78;;;15.13;66.76
39491;BME280;25175;50.140;18.990;2023-05-15T12:43:03;97582.91;;;15.16;66.22
39491;BME280;25175;50.140;18.990;2023-05-15T12:46:12;97567.00;;;14.96;66.57
39491;BME280;25175;50.140;18.990;2023-05-15T12:49:23;97556.47;;;15.16;66.23
39491;BME280;25175;50.140;18.990;2023-05-15T12:52:32;97591.44;;;15.38;66.19
39491;BME280;25175;50.140;18.990;2023-05-15T12:55:39;97578.16;;;15.18;65.18
39491;BME280;25175;50.140;18.990;2023-05-15T12:58:46;97591.19;;;15.44;66.00
39491;BME280;25175;50.140;18.990;2023-05-15T13:01:51;97578.81;;;15.50;66.37
39491;BME280;25175;50.140;18.990;2023-05-15T13:05:01;97573.25;;;15.56;65.71
39491;BME280;25175;50.140;18.990;2023-05-15T13:08:08;97576.44;;;15.63;66.25
39491;BME280;25175;50.140;18.990;2023-05-15T13:11:20;97576.75;;;15.72;65.78
39491;BME280;25175;50.140;18.990;2023-05-15T13:14:26;97581.50;;;15.75;65.48
39491;BME280;25175;50.140;18.990;2023-05-15T13:17:36;97585.50;;;15.83;65.31
39491;BME280;25175;50.140;18.990;2023-05-15T13:20:48;97582.84;;;15.83;63.32
39491;BME280;25175;50.140;18.990;2023-05-15T13:23:56;97583.66;;;15.83;63.60
39491;BME280;25175;50.140;18.990;2023-05-15T13:27:11;97586.00;;;15.84;63.59
39491;BME280;25175;50.140;18.990;2023-05-15T13:30:17;97582.34;;;15.86;63.10
39491;BME280;25175;50.140;18.990;2023-05-15T13:33:23;97579.66;;;15.90;63.15
39491;BME280;25175;50.140;18.990;2023-05-15T13:36:34;97575.72;;;15.98;62.86
39491;BME280;25175;50.140;18.990;2023-05-15T13:39:59;97580.75;;;16.04;62.25
39491;BME280;25175;50.140;18.990;2023-05-15T13:43:08;97574.94;;;16.08;61.93
39491;BME280;25175;50.140;18.990;2023-05-15T13:46:13;97588.94;;;16.08;60.46
39491;BME280;25175;50.140;18.990;2023-05-15T13:49:20;97584.97;;;16.10;60.47
39491;BME280;25175;50.140;18.990;2023-05-15T13:52:31;97581.00;;;16.13;59.49
39491;BME280;25175;50.140;18.990;2023-05-15T13:55:38;97577.31;;;16.14;59.81
39491;BME280;25175;50.140;18.990;2023-05-15T13:58:43;97578.09;;;16.19;59.74
39491;BME280;25175;50.140;18.990;2023-05-15T14:01:50;97575.72;;;16.23;59.98
39491;BME280;25175;50.140;18.990;2023-05-15T14:04:55;97591.84;;;16.46;59.49
39491;BME280;25175;50.140;18.990;2023-05-15T14:08:05;97590.81;;;16.58;57.37
39491;BME280;25175;50.140;18.990;2023-05-15T14:11:13;97592.38;;;16.68;57.07
39491;BME280;25175;50.140;18.990;2023-05-15T14:14:20;97592.88;;;16.75;54.42
39491;BME280;25175;50.140;18.990;2023-05-15T14:17:25;97550.00;;;16.58;54.51
39491;BME280;25175;50.140;18.990;2023-05-15T14:20:35;97600.28;;;16.83;53.77
39491;BME280;25175;50.140;18.990;2023-05-15T14:23:43;97601.59;;;16.81;53.76
39491;BME280;25175;50.140;18.990;2023-05-15T14:26:53;97597.13;;;16.61;53.31
39491;BME280;25175;50.140;18.990;2023-05-15T14:30:01;97607.22;;;16.64;53.41
39491;BME280;25175;50.140;18.990;2023-05-15T14:33:09;97594.50;;;16.56;54.16
39491;BME280;25175;50.140;18.990;2023-05-15T14:36:14;97603.75;;;16.69;53.90
39491;BME280;25175;50.140;18.990;2023-05-15T14:39:26;97593.66;;;16.76;54.40
39491;BME280;25175;50.140;18.990;2023-05-15T14:42:31;97593.41;;;16.72;53.08
39491;BME280;25175;50.140;18.990;2023-05-15T14:45:37;97576.19;;;16.70;53.17
39491;BME280;25175;50.140;18.990;2023-05-15T14:48:45;97590.47;;;16.89;52.70
39491;BME280;25175;50.140;18.990;2023-05-15T14:51:52;97596.00;;;16.97;52.33
39491;BME280;25175;50.140;18.990;2023-05-15T14:55:00;97333.72;;;15.26;51.68
39491;BME280;25175;50.140;18.990;2023-05-15T14:58:07;97584.59;;;16.92;51.56
39491;BME280;25175;50.140;18.990;2023-05-15T15:01:13;97588.59;;;16.94;51.69
39491;BME280;25175;50.140;18.990;2023-05-15T15:04:19;97586.47;;;16.96;50.72
39491;BME280;25175;50.140;18.990;2023-05-15T15:07:26;97600.75;;;17.00;51.35
39491;BME280;25175;50.140;18.990;2023-05-15T15:10:37;97585.38;;;17.02;50.77
39491;BME280;25175;50.140;18.990;2023-05-15T15:13:46;97600.75;;;17.05;50.77
39491;BME280;25175;50.140;18.990;2023-05-15T15:16:52;97597.31;;;17.00;48.97
39491;BME280;25175;50.140;18.990;2023-05-15T15:20:19;97583.31;;;16.84;48.82
39491;BME280;25175;50.140;18.990;2023-05-15T15:23:26;97598.94;;;16.86;49.44
39491;BME280;25175;50.140;18.990;2023-05-15T15:26:34;97597.38;;;16.80;49.17
39491;BME280;25175;50.140;18.990;2023-05-15T15:29:40;97616.19;;;16.73;49.82
39491;BME280;25175;50.140;18.990;2023-05-15T15:32:46;97613.56;;;16.68;49.52
39491;BME280;25175;50.140;18.990;2023-05-15T15:40:07;97614.31;;;16.84;49.16
39491;BME280;25175;50.140;18.990;2023-05-15T15:43:16;97620.97;;;16.81;48.82
39491;BME280;25175;50.140;18.990;2023-05-15T15:46:21;97615.94;;;16.75;48.17
39491;BME280;25175;50.140;18.990;2023-05-15T15:49:27;97623.38;;;16.68;48.23
39491;BME280;25175;50.140;18.990;2023-05-15T15:52:37;97611.75;;;16.49;48.02
39491;BME280;25175;50.140;18.990;2023-05-15T15:55:44;97624.66;;;16.45;48.70
39491;BME280;25175;50.140;18.990;2023-05-15T15:58:52;97620.44;;;16.39;49.37
39491;BME280;25175;50.140;18.990;2023-05-15T16:01:58;97617.28;;;16.37;49.65
39491;BME280;25175;50.140;18.990;2023-05-15T16:05:04;97627.06;;;16.37;50.13
39491;BME280;25175;50.140;18.990;2023-05-15T16:08:10;97618.34;;;16.41;50.02
39491;BME280;25175;50.140;18.990;2023-05-15T16:11:17;97627.06;;;16.37;49.76
39491;BME280;25175;50.140;18.990;2023-05-15T16:14:26;97646.66;;;16.46;49.52
39491;BME280;25175;50.140;18.990;2023-05-15T16:17:33;97645.84;;;16.40;49.28
39491;BME280;25175;50.140;18.990;2023-05-15T16:20:41;97642.41;;;16.25;49.25
39491;BME280;25175;50.140;18.990;2023-05-15T16:23:47;97651.66;;;16.12;49.95
39491;BME280;25175;50.140;18.990;2023-05-15T16:26:52;97643.72;;;15.98;50.08
39491;BME280;25175;50.140;18.990;2023-05-15T16:30:01;97647.69;;;15.90;50.65
39491;BME280;25175;50.140;18.990;2023-05-15T16:33:07;97647.41;;;15.82;50.86
39491;BME280;25175;50.140;18.990;2023-05-15T16:36:12;97667.50;;;15.77;51.32
39491;BME280;25175;50.140;18.990;2023-05-15T16:39:18;97665.38;;;15.75;51.23
39491;BME280;25175;50.140;18.990;2023-05-15T16:42:23;97661.91;;;15.69;51.76
39491;BME280;25175;50.140;18.990;2023-05-15T16:45:32;97650.19;;;15.55;51.91
39491;BME280;25175;50.140;18.990;2023-05-15T16:48:37;97667.19;;;15.69;51.98